Time;durP1;ratioP1;P1;durP2;ratioP2;P2;SDS_P1;SDS_P2;PMS_P1;PMS_P2;Temp;Humidity;BMP_temperature;BMP_pressure;BME280_temperature;BME280_humidity;BME280_pressure;Samples;Min_cycle;Max_cycle;Signal;HPM_P1;HPM_P2
2021/09/05 00:00:52;;;;;;;34.10;13.30;;;15.00;99.90;;;;;;5028187;28;20038;-87
2021/09/05 00:03:45;;;;;;;46.05;14.32;;;15.00;99.90;;;;;;5020874;28;20057;-90
2021/09/05 00:06:13;;;;;;;26.63;12.35;;;15.10;99.90;;;;;;5019213;28;20058;-90
2021/09/05 00:08:42;;;;;;;29.45;11.95;;;15.00;99.90;;;;;;4996953;28;20050;-87
2021/09/05 00:11:11;;;;;;;34.88;14.70;;;15.00;99.90;;;;;;5017093;28;20533;-88
2021/09/05 00:13:41;;;;;;;28.85;12.88;;;15.00;99.90;;;;;;5004869;28;20384;-89
2021/09/05 00:16:09;;;;;;;30.40;12.98;;;15.00;99.90;;;;;;4994292;28;20050;-88
2021/09/05 00:18:37;;;;;;;28.83;12.80;;;15.00;99.90;;;;;;5029295;28;20041;-91
2021/09/05 00:21:06;;;;;;;27.80;13.25;;;15.40;99.90;;;;;;5028777;28;20060;-87
2021/09/05 00:23:35;;;;;;;30.02;12.77;;;15.00;99.90;;;;;;5022844;28;20425;-89
2021/09/05 00:26:06;;;;;;;33.80;12.32;;;15.10;99.90;;;;;;5001992;28;20564;-87
2021/09/05 00:28:34;;;;;;;30.08;12.98;;;15.10;99.90;;;;;;5020125;28;20045;-88
2021/09/05 00:31:02;;;;;;;28.17;12.32;;;15.10;99.90;;;;;;5018656;28;20371;-87
2021/09/05 00:33:30;;;;;;;27.85;12.15;;;15.10;99.90;;;;;;5000897;28;20046;-88
2021/09/05 00:36:03;;;;;;;32.88;12.73;;;15.20;99.90;;;;;;5018761;28;20046;-88
2021/09/05 00:38:33;;;;;;;34.40;14.10;;;15.20;99.90;;;;;;5018555;28;20045;-87
2021/09/05 00:41:01;;;;;;;30.02;11.77;;;15.20;99.90;;;;;;5018387;28;20053;-87
2021/09/05 00:43:29;;;;;;;25.75;12.48;;;15.20;99.90;;;;;;5001814;28;20053;-88
2021/09/05 00:45:58;;;;;;;23.33;12.68;;;15.30;99.90;;;;;;5022268;28;20030;-88
2021/09/05 00:48:26;;;;;;;26.48;12.90;;;15.30;99.90;;;;;;4999817;28;20058;-87
2021/09/05 00:50:54;;;;;;;28.50;12.98;;;15.30;99.90;;;;;;4989816;28;20050;-88
2021/09/05 00:53:23;;;;;;;31.52;13.25;;;15.40;99.90;;;;;;5016461;28;20088;-88
2021/09/05 00:55:56;;;;;;;24.27;12.40;;;15.40;99.90;;;;;;5015237;28;20050;-88
2021/09/05 00:58:28;;;;;;;26.25;13.02;;;15.40;99.90;;;;;;5016606;28;20050;-88
2021/09/05 01:00:57;;;;;;;32.58;12.70;;;15.40;99.90;;;;;;4999936;28;20057;-89
2021/09/05 01:03:28;;;;;;;28.33;13.75;;;15.50;99.90;;;;;;5000517;28;20060;-87
2021/09/05 01:06:10;;;;;;;24.05;12.55;;;15.50;99.90;;;;;;5016700;28;20058;-86
2021/09/05 01:08:42;;;;;;;27.17;12.02;;;15.50;99.90;;;;;;5032739;28;20065;-88
2021/09/05 01:11:13;;;;;;;21.45;12.90;;;15.60;99.90;;;;;;5017402;28;20062;-87
2021/09/05 01:13:42;;;;;;;27.42;13.07;;;15.60;99.90;;;;;;5015772;28;20058;-87
2021/09/05 01:16:35;;;;;;;25.73;13.32;;;15.60;99.90;;;;;;5015913;28;20046;-87
2021/09/05 01:19:36;;;;;;;25.35;10.82;;;15.60;99.90;;;;;;4968794;28;20065;-89
2021/09/05 01:22:37;;;;;;;30.83;13.15;;;15.60;99.90;;;;;;5018308;28;20780;-88
2021/09/05 01:25:43;;;;;;;29.27;12.38;;;15.60;99.90;;;;;;5037576;28;20061;-88
2021/09/05 01:28:32;;;;;;;26.25;12.45;;;15.60;99.90;;;;;;5010153;28;20055;-89
2021/09/05 01:31:21;;;;;;;30.50;12.80;;;15.70;99.90;;;;;;5034972;28;20045;-88
2021/09/05 01:34:15;;;;;;;27.38;11.70;;;15.70;99.90;;;;;;5021051;28;20061;-88
2021/09/05 01:37:03;;;;;;;26.88;12.15;;;15.70;99.90;;;;;;5025495;28;20305;-87
2021/09/05 01:40:00;;;;;;;23.20;10.35;;;15.70;99.90;;;;;;5002407;28;20050;-88
2021/09/05 01:42:46;;;;;;;26.90;12.45;;;15.70;99.90;;;;;;4992591;28;20038;-89
2021/09/05 01:45:33;;;;;;;31.83;10.90;;;15.70;99.90;;;;;;5019379;28;20042;-89
2021/09/05 01:48:23;;;;;;;30.92;11.23;;;15.70;99.90;;;;;;5020231;28;20045;-89
2021/09/05 01:51:15;;;;;;;26.10;11.63;;;15.70;99.90;;;;;;5019707;28;20072;-87
2021/09/05 01:54:06;;;;;;;;;;;15.70;99.90;;;;;;5006074;28;20060;-89
2021/09/05 01:56:56;;;;;;;23.27;12.45;;;15.70;99.90;;;;;;4989399;28;19921;-89
2021/09/05 01:59:48;;;;;;;32.22;12.05;;;15.70;99.90;;;;;;4989378;28;20074;-89
2021/09/05 02:02:36;;;;;;;26.05;10.95;;;15.70;99.90;;;;;;5018579;28;20061;-88
2021/09/05 02:05:23;;;;;;;34.20;11.88;;;15.70;99.90;;;;;;4998218;28;20054;-89
2021/09/05 02:08:11;;;;;;;21.70;10.80;;;15.70;99.90;;;;;;5013011;28;20061;-89
2021/09/05 02:11:02;;;;;;;30.70;12.10;;;15.70;99.90;;;;;;5006646;28;20070;-89
2021/09/05 02:13:57;;;;;;;36.45;12.88;;;15.70;99.90;;;;;;5003451;28;20493;-88
2021/09/05 02:16:57;;;;;;;25.90;12.77;;;15.70;99.90;;;;;;5014027;28;20703;-88
2021/09/05 02:19:39;;;;;;;24.47;11.40;;;15.70;99.90;;;;;;5017297;28;20060;-88
2021/09/05 02:22:27;;;;;;;35.78;11.90;;;15.70;99.90;;;;;;4994705;28;20291;-87
2021/09/05 02:25:17;;;;;;;24.67;11.93;;;15.70;99.90;;;;;;4998918;28;20045;-89
2021/09/05 02:28:03;;;;;;;27.83;11.35;;;15.70;99.90;;;;;;5017856;28;20038;-88
2021/09/05 02:30:53;;;;;;;25.05;11.27;;;15.70;99.90;;;;;;5015311;28;20057;-89
2021/09/05 02:33:44;;;;;;;27.80;13.27;;;15.70;99.90;;;;;;5011498;28;20041;-87
2021/09/05 02:36:38;;;;;;;29.92;12.27;;;15.70;99.90;;;;;;5013078;28;20500;-88
2021/09/05 02:39:33;;;;;;;27.00;11.95;;;15.70;99.90;;;;;;4993859;28;20050;-88
2021/09/05 02:42:25;;;;;;;28.42;11.57;;;15.80;99.90;;;;;;4998679;28;20053;-89
2021/09/05 02:45:17;;;;;;;34.55;14.73;;;15.80;99.90;;;;;;5011248;28;20449;-88
2021/09/05 02:48:06;;;;;;;25.42;13.05;;;15.80;99.90;;;;;;5028013;28;20061;-88
2021/09/05 02:50:46;;;;;;;28.88;14.13;;;15.80;99.90;;;;;;4999680;28;20050;-89
2021/09/05 02:53:50;;;;;;;24.23;11.57;;;15.80;99.90;;;;;;4947306;28;20056;-88
2021/09/05 02:56:41;;;;;;;24.98;11.77;;;15.80;99.90;;;;;;4991808;28;20053;-88
2021/09/05 02:59:33;;;;;;;25.40;10.52;;;15.80;99.90;;;;;;5002958;28;20054;-87
2021/09/05 03:02:21;;;;;;;28.13;10.40;;;15.90;99.90;;;;;;5011949;28;20401;-89
2021/09/05 03:05:18;;;;;;;29.05;11.73;;;15.90;99.90;;;;;;5019704;28;20056;-88
2021/09/05 03:08:03;;;;;;;29.55;11.48;;;15.80;99.90;;;;;;5020716;28;20056;-90
2021/09/05 03:10:46;;;;;;;25.55;11.73;;;15.80;99.90;;;;;;5010132;28;20072;-87
2021/09/05 03:13:45;;;;;;;26.10;12.57;;;15.90;99.90;;;;;;5023157;28;20045;-87
2021/09/05 03:16:34;;;;;;;34.65;12.68;;;15.90;99.90;;;;;;5026265;28;20531;-88
2021/09/05 03:19:22;;;;;;;25.38;12.77;;;15.90;99.90;;;;;;5003541;28;20059;-88
2021/09/05 03:22:10;;;;;;;21.67;11.43;;;15.90;99.90;;;;;;5024312;28;20053;-91
2021/09/05 03:24:57;;;;;;;29.40;12.95;;;14.90;99.90;;;;;;5025203;28;20326;-90
2021/09/05 03:27:44;;;;;;;26.30;10.52;;;15.90;99.90;;;;;;5020294;28;20049;-91
2021/09/05 03:30:47;;;;;;;30.13;10.93;;;15.90;99.90;;;;;;4961852;28;20050;-89
2021/09/05 03:33:33;;;;;;;22.92;10.02;;;15.90;99.90;;;;;;5035899;28;20056;-89
2021/09/05 03:36:06;;;;;;;28.13;10.97;;;15.90;99.90;;;;;;5022444;28;20044;-90
2021/09/05 03:38:57;;;;;;;28.10;11.13;;;15.90;99.90;;;;;;5009945;28;20057;-90
2021/09/05 03:41:58;;;;;;;29.90;10.85;;;15.90;99.90;;;;;;5020543;28;20046;-91
2021/09/05 03:44:44;;;;;;;30.95;11.35;;;15.90;99.90;;;;;;5028184;28;20049;-88
2021/09/05 03:47:32;;;;;;;28.67;12.90;;;15.30;99.90;;;;;;5004103;28;20061;-88
2021/09/05 03:50:40;;;;;;;26.48;10.90;;;15.90;99.90;;;;;;4984901;28;20544;-89
2021/09/05 03:53:09;;;;;;;23.35;10.50;;;15.90;99.90;;;;;;4979279;28;20054;-88
2021/09/05 03:55:42;;;;;;;26.15;10.93;;;15.90;99.90;;;;;;4979992;28;20513;-87
2021/09/05 03:58:12;;;;;;;24.75;10.15;;;15.90;99.90;;;;;;5000138;28;20042;-88
2021/09/05 04:00:42;;;;;;;29.02;10.95;;;15.90;99.90;;;;;;5016947;28;20157;-87
2021/09/05 04:03:13;;;;;;;;;;;15.90;99.90;;;;;;5017184;28;20057;-88
2021/09/05 04:05:42;;;;;;;28.42;11.05;;;15.90;99.90;;;;;;4996682;28;19926;-88
2021/09/05 04:08:15;;;;;;;30.45;11.00;;;15.80;99.90;;;;;;5013836;28;20072;-89
2021/09/05 04:10:44;;;;;;;31.23;12.27;;;15.80;99.90;;;;;;5016472;28;20066;-89
2021/09/05 04:13:13;;;;;;;34.72;13.98;;;15.80;99.90;;;;;;5017655;28;20657;-87
2021/09/05 04:15:42;;;;;;;25.77;12.13;;;15.20;99.90;;;;;;5016758;28;20069;-88
2021/09/05 04:18:10;;;;;;;28.35;11.73;;;15.80;99.90;;;;;;4999475;28;20437;-87
2021/09/05 04:20:41;;;;;;;23.42;10.77;;;15.80;99.90;;;;;;5016577;28;20050;-88
2021/09/05 04:23:13;;;;;;;23.20;11.48;;;15.80;99.90;;;;;;5017107;28;20057;-88
2021/09/05 04:25:40;;;;;;;25.20;12.07;;;15.80;99.90;;;;;;5016840;28;20331;-89
2021/09/05 04:28:08;;;;;;;28.20;11.90;;;15.80;99.90;;;;;;5016932;28;20042;-88
2021/09/05 04:30:38;;;;;;;36.70;12.65;;;15.70;99.90;;;;;;5001857;28;20414;-87
2021/09/05 04:33:06;;;;;;;28.53;11.70;;;15.80;99.90;;;;;;5017815;28;20061;-88
2021/09/05 04:35:35;;;;;;;34.60;13.00;;;15.80;99.90;;;;;;5004038;28;20050;-88
2021/09/05 04:38:07;;;;;;;33.85;12.38;;;15.80;99.90;;;;;;5000825;28;20050;-87
2021/09/05 04:40:35;;;;;;;34.08;12.50;;;15.80;99.90;;;;;;5018869;28;20045;-88
2021/09/05 04:43:03;;;;;;;28.95;10.45;;;15.80;99.90;;;;;;5017124;28;20058;-88
2021/09/05 04:45:31;;;;;;;30.60;11.23;;;15.80;99.90;;;;;;5016908;28;20042;-88
2021/09/05 04:48:03;;;;;;;25.40;10.95;;;15.80;99.90;;;;;;5017788;28;20768;-86
2021/09/05 04:50:32;;;;;;;41.67;13.07;;;15.80;99.90;;;;;;5001160;28;20057;-88
2021/09/05 04:53:01;;;;;;;36.60;10.55;;;15.80;99.90;;;;;;5003154;28;20045;-87
2021/09/05 04:55:33;;;;;;;30.95;12.05;;;15.70;99.90;;;;;;5025658;28;20056;-89
2021/09/05 04:58:03;;;;;;;35.20;11.60;;;15.70;99.90;;;;;;5027753;28;20075;-86
2021/09/05 05:00:33;;;;;;;39.22;11.85;;;15.70;99.90;;;;;;5033526;28;20057;-89
2021/09/05 05:03:03;;;;;;;34.50;13.65;;;15.70;99.90;;;;;;5004695;28;20048;-88
2021/09/05 05:05:32;;;;;;;29.05;11.18;;;15.70;99.90;;;;;;5017124;28;20046;-88
2021/09/05 05:08:01;;;;;;;32.72;10.88;;;15.70;99.90;;;;;;5033362;28;20046;-90
2021/09/05 05:10:29;;;;;;;33.92;13.57;;;15.70;99.90;;;;;;5005320;28;20056;-88
2021/09/05 05:12:58;;;;;;;40.78;14.63;;;15.70;99.90;;;;;;5032022;28;20052;-89
2021/09/05 05:15:26;;;;;;;41.15;13.50;;;15.60;99.90;;;;;;5021908;28;20577;-88
2021/09/05 05:17:56;;;;;;;37.55;13.73;;;15.70;99.90;;;;;;5033586;28;20045;-88
2021/09/05 05:20:29;;;;;;;36.42;11.02;;;15.70;99.90;;;;;;5014659;28;20046;-89
2021/09/05 05:22:57;;;;;;;37.85;14.90;;;15.70;99.90;;;;;;5028076;28;20048;-89
2021/09/05 05:25:26;;;;;;;38.85;12.98;;;15.80;99.90;;;;;;4987360;28;20054;-89
2021/09/05 05:27:55;;;;;;;42.45;14.60;;;15.80;99.90;;;;;;5018375;28;20121;-90
2021/09/05 05:30:23;;;;;;;32.88;13.48;;;15.80;99.90;;;;;;5006399;28;20054;-89
2021/09/05 05:32:51;;;;;;;38.15;14.38;;;15.70;99.90;;;;;;5008218;28;20046;-88
2021/09/05 05:35:20;;;;;;;35.05;14.55;;;15.80;99.90;;;;;;5020706;28;20149;-88
2021/09/05 05:37:49;;;;;;;43.35;16.20;;;15.80;99.90;;;;;;5019788;28;20045;-88
2021/09/05 05:40:25;;;;;;;35.00;14.07;;;15.80;99.90;;;;;;5004676;28;20077;-88
2021/09/05 05:42:53;;;;;;;48.90;14.10;;;15.80;99.90;;;;;;5021648;28;20041;-88
2021/09/05 05:45:22;;;;;;;38.58;15.77;;;15.80;99.90;;;;;;5004608;28;20072;-88
2021/09/05 05:47:51;;;;;;;55.22;19.17;;;15.80;99.90;;;;;;5020402;28;20054;-89
2021/09/05 05:50:19;;;;;;;50.03;16.98;;;15.80;99.90;;;;;;5019456;28;20050;-88
2021/09/05 05:52:51;;;;;;;45.50;16.30;;;15.80;99.90;;;;;;5018807;28;20055;-89
2021/09/05 05:55:22;;;;;;;30.83;14.32;;;15.90;99.90;;;;;;5021777;28;20050;-90
2021/09/05 05:57:50;;;;;;;50.28;18.35;;;15.20;99.90;;;;;;5022847;28;20057;-88
2021/09/05 06:00:19;;;;;;;49.22;15.85;;;15.90;99.90;;;;;;5008928;28;20053;-88
2021/09/05 06:02:48;;;;;;;37.95;15.38;;;15.90;99.90;;;;;;5026847;28;20041;-89
2021/09/05 06:05:22;;;;;;;46.03;15.48;;;15.90;99.90;;;;;;5025604;28;20254;-88
2021/09/05 06:07:51;;;;;;;43.08;16.13;;;16.00;99.90;;;;;;5005009;28;20069;-87
2021/09/05 06:10:19;;;;;;;52.85;19.35;;;16.00;99.90;;;;;;5006754;28;20049;-88
2021/09/05 06:12:47;;;;;;;47.15;17.50;;;16.00;99.90;;;;;;5027614;28;20046;-89
2021/09/05 06:15:15;;;;;;;54.35;18.30;;;16.00;99.90;;;;;;5001830;28;20062;-88
2021/09/05 06:17:43;;;;;;;48.88;18.05;;;16.00;99.90;;;;;;5017219;28;20054;-88
2021/09/05 06:20:13;;;;;;;41.70;17.52;;;16.10;99.90;;;;;;5018885;28;20061;-89
2021/09/05 06:22:41;;;;;;;61.40;20.63;;;16.10;99.90;;;;;;5020295;28;20053;-89
2021/09/05 06:25:09;;;;;;;41.75;19.52;;;16.10;99.90;;;;;;5001270;28;20049;-89
2021/09/05 06:27:39;;;;;;;40.30;17.67;;;16.20;99.90;;;;;;5020735;28;20059;-88
2021/09/05 06:30:15;;;;;;;45.85;18.10;;;16.20;99.90;;;;;;5018007;28;20054;-89
2021/09/05 06:32:46;;;;;;;39.25;18.20;;;16.10;99.90;;;;;;5030505;28;20049;-88
2021/09/05 06:35:36;;;;;;;36.22;15.10;;;16.30;99.90;;;;;;5020023;28;20061;-90
2021/09/05 06:38:09;;;;;;;44.92;19.65;;;16.40;99.90;;;;;;5002466;28;20054;-88
2021/09/05 06:40:37;;;;;;;46.40;17.98;;;16.30;99.90;;;;;;5003998;28;20054;-89
2021/09/05 06:43:07;;;;;;;51.95;17.65;;;16.50;99.90;;;;;;5034452;28;20397;-88
2021/09/05 06:45:35;;;;;;;47.35;18.75;;;16.50;99.90;;;;;;5025195;28;20054;-88
2021/09/05 06:48:06;;;;;;;57.72;19.75;;;16.60;99.90;;;;;;5016928;28;20046;-89
2021/09/05 06:50:34;;;;;;;55.20;17.60;;;16.60;99.90;;;;;;5021107;28;20064;-88
2021/09/05 06:53:02;;;;;;;60.05;22.45;;;16.70;99.90;;;;;;5019249;28;20057;-89
2021/09/05 06:55:30;;;;;;;48.78;19.45;;;16.70;99.90;;;;;;5020214;28;20054;-89
2021/09/05 06:57:58;;;;;;;40.83;16.58;;;16.80;99.90;;;;;;4983106;28;20057;-88
2021/09/05 07:00:28;;;;;;;53.78;19.27;;;16.90;99.90;;;;;;5017934;28;20057;-88
2021/09/05 07:02:58;;;;;;;54.97;18.30;;;16.90;99.90;;;;;;5020096;28;20046;-88
2021/09/05 07:05:27;;;;;;;52.20;19.63;;;17.00;99.90;;;;;;5004749;28;20061;-89
2021/09/05 07:07:57;;;;;;;47.70;18.63;;;17.10;99.90;;;;;;5019227;28;20650;-89
2021/09/05 07:10:25;;;;;;;59.53;23.40;;;17.10;99.90;;;;;;5020406;28;20481;-88
2021/09/05 07:12:53;;;;;;;53.63;23.05;;;17.10;99.90;;;;;;5040275;28;20052;-90
2021/09/05 07:15:27;;;;;;;61.13;21.38;;;17.10;99.90;;;;;;4995064;28;20049;-87
2021/09/05 07:17:56;;;;;;;51.30;20.80;;;17.10;99.90;;;;;;4991806;28;20050;-89
2021/09/05 07:20:24;;;;;;;61.20;21.67;;;17.20;99.90;;;;;;5004429;28;20048;-90
2021/09/05 07:22:53;;;;;;;60.22;21.90;;;17.20;99.90;;;;;;5005506;28;20079;-89
2021/09/05 07:25:21;;;;;;;60.17;21.17;;;17.20;99.90;;;;;;5024531;28;20058;-89
2021/09/05 07:27:49;;;;;;;53.92;21.92;;;17.20;99.90;;;;;;4999363;28;20058;-90
2021/09/05 07:30:19;;;;;;;68.90;25.70;;;17.30;99.90;;;;;;5013445;28;20046;-89
2021/09/05 07:32:50;;;;;;;62.00;25.52;;;17.30;99.90;;;;;;5033190;28;20057;-90
2021/09/05 07:35:18;;;;;;;56.63;22.58;;;17.40;99.90;;;;;;5034691;28;20057;-89
2021/09/05 07:37:48;;;;;;;64.63;24.80;;;17.40;99.90;;;;;;5001376;28;20057;-89
2021/09/05 07:40:21;;;;;;;56.57;22.10;;;17.50;99.90;;;;;;5025988;28;20054;-89
2021/09/05 07:42:51;;;;;;;55.28;22.15;;;17.50;99.90;;;;;;5016464;28;20092;-91
2021/09/05 07:45:29;;;;;;;53.45;22.33;;;17.60;99.90;;;;;;5016553;28;20030;-89
2021/09/05 07:47:57;;;;;;;58.97;24.42;;;17.60;99.90;;;;;;5009215;28;20054;-89
2021/09/05 07:50:29;;;;;;;59.80;22.10;;;17.70;99.90;;;;;;5026924;28;20049;-90
2021/09/05 07:53:03;;;;;;;59.10;26.48;;;17.80;99.90;;;;;;5028222;28;20054;-89
2021/09/05 07:55:31;;;;;;;55.85;25.02;;;17.80;99.90;;;;;;5020957;28;20056;-91
2021/09/05 07:58:00;;;;;;;63.65;22.67;;;17.80;99.90;;;;;;5007993;28;20050;-90
2021/09/05 08:00:28;;;;;;;57.28;21.70;;;17.90;99.90;;;;;;5004752;28;20053;-91
2021/09/05 08:03:01;;;;;;;50.13;22.10;;;17.90;99.90;;;;;;5004896;28;20046;-91
2021/09/05 08:05:28;;;;;;;60.20;24.92;;;18.00;99.90;;;;;;4984747;28;20287;-90
2021/09/05 08:07:57;;;;;;;53.38;21.65;;;18.10;99.90;;;;;;5008990;28;20053;-90
2021/09/05 08:10:27;;;;;;;52.00;22.10;;;18.10;99.90;;;;;;4980570;28;20057;-90
2021/09/05 08:12:58;;;;;;;62.45;24.60;;;18.20;99.90;;;;;;5016668;28;20042;-91
2021/09/05 08:15:27;;;;;;;57.20;22.02;;;18.30;99.90;;;;;;5025277;28;20042;-90
2021/09/05 08:17:56;;;;;;;58.35;21.50;;;18.30;99.90;;;;;;5006649;28;20045;-91
2021/09/05 08:20:26;;;;;;;52.83;21.58;;;18.40;99.90;;;;;;4992502;28;20493;-91
2021/09/05 08:23:02;;;;;;;56.13;23.42;;;18.40;99.90;;;;;;4998127;28;20038;-90
2021/09/05 08:25:33;;;;;;;59.55;25.42;;;18.50;99.90;;;;;;5006912;28;20390;-90
2021/09/05 08:28:03;;;;;;;59.58;25.65;;;18.50;99.90;;;;;;5017363;28;20034;-91
2021/09/05 08:30:31;;;;;;;58.50;25.52;;;18.50;99.90;;;;;;5028734;28;20052;-90
2021/09/05 08:32:59;;;;;;;51.80;24.35;;;18.50;99.90;;;;;;5014772;28;20042;-92
2021/09/05 08:35:29;;;;;;;61.10;27.23;;;18.60;99.90;;;;;;5007033;28;20053;-90
2021/09/05 08:37:58;;;;;;;51.00;23.88;;;18.60;99.90;;;;;;5004379;28;20049;-90
2021/09/05 08:40:28;;;;;;;51.38;24.27;;;18.60;99.90;;;;;;4984892;28;20041;-92
2021/09/05 08:43:01;;;;;;;51.40;24.95;;;18.70;99.90;;;;;;5006800;28;20046;-90
2021/09/05 08:45:30;;;;;;;52.35;25.75;;;18.80;99.90;;;;;;4998710;28;20046;-91
2021/09/05 08:48:00;;;;;;;55.72;24.13;;;18.80;99.90;;;;;;4978157;28;20053;-89
2021/09/05 08:50:31;;;;;;;45.72;21.85;;;18.90;99.90;;;;;;5016701;28;20038;-90
2021/09/05 08:53:07;;;;;;;57.22;22.33;;;19.00;99.90;;;;;;4985640;28;20053;-90
2021/09/05 08:55:37;;;;;;;54.58;24.08;;;19.00;99.90;;;;;;5020672;28;20285;-89
2021/09/05 08:58:25;;;;;;;41.97;21.63;;;19.10;99.90;;;;;;5001763;28;20050;-91
2021/09/05 09:00:57;;;;;;;45.17;22.42;;;19.20;99.90;;;;;;4986787;28;20061;-88
2021/09/05 09:03:36;;;;;;;40.10;21.92;;;19.30;99.90;;;;;;5032072;28;20049;-90
2021/09/05 09:06:08;;;;;;;54.70;22.70;;;19.50;99.90;;;;;;5015468;28;20057;-88
2021/09/05 09:08:38;;;;;;;39.20;19.58;;;19.60;99.90;;;;;;5000401;28;20057;-90
2021/09/05 09:11:13;;;;;;;45.55;22.58;;;19.70;99.90;;;;;;5018642;28;20061;-89
2021/09/05 09:13:45;;;;;;;50.35;22.15;;;19.70;99.90;;;;;;5016405;28;20033;-92
2021/09/05 09:16:17;;;;;;;61.28;23.48;;;19.80;99.90;;;;;;5012314;28;20064;-90
2021/09/05 09:18:48;;;;;;;45.88;21.63;;;19.90;99.90;;;;;;4997666;28;20046;-88
2021/09/05 09:21:21;;;;;;;40.13;19.75;;;20.10;99.90;;;;;;4996532;28;20061;-90
2021/09/05 09:23:50;;;;;;;43.88;22.23;;;20.10;99.90;;;;;;4998067;28;20059;-88
2021/09/05 09:26:19;;;;;;;46.58;24.65;;;19.40;99.90;;;;;;4992543;28;20054;-88
2021/09/05 09:28:49;;;;;;;51.40;23.42;;;20.30;99.90;;;;;;4993859;28;20053;-89
2021/09/05 09:31:22;;;;;;;53.97;26.98;;;20.30;99.90;;;;;;5012928;28;20050;-88
2021/09/05 09:33:52;;;;;;;51.92;26.40;;;20.30;99.90;;;;;;5008049;28;20065;-88
2021/09/05 09:36:27;;;;;;;52.45;27.27;;;20.30;99.90;;;;;;5015590;28;20061;-90
2021/09/05 09:39:01;;;;;;;48.50;26.48;;;20.40;99.90;;;;;;5008250;28;20054;-90
2021/09/05 09:41:30;;;;;;;57.28;25.98;;;20.50;99.90;;;;;;4999229;28;20072;-90
2021/09/05 09:44:00;;;;;;;52.67;25.92;;;20.60;99.90;;;;;;4981455;28;20804;-90
2021/09/05 09:46:33;;;;;;;53.50;26.10;;;20.80;99.90;;;;;;4998206;28;20056;-89
2021/09/05 09:49:09;;;;;;;63.72;30.42;;;20.90;99.90;;;;;;5015979;28;20054;-89
2021/09/05 09:51:40;;;;;;;47.30;26.48;;;21.00;99.90;;;;;;5012107;28;20045;-89
2021/09/05 09:54:11;;;;;;;51.08;27.77;;;21.10;99.90;;;;;;5013681;28;20042;-91
2021/09/05 09:56:48;;;;;;;49.42;26.63;;;21.20;99.90;;;;;;4997325;28;20084;-90
2021/09/05 09:59:21;;;;;;;50.60;24.75;;;21.20;99.90;;;;;;5011151;28;20045;-89
2021/09/05 10:02:03;;;;;;;47.45;25.88;;;21.30;99.90;;;;;;5013142;28;20381;-91
2021/09/05 10:04:34;;;;;;;50.28;28.05;;;21.20;99.90;;;;;;5014275;28;20056;-89
2021/09/05 10:07:08;;;;;;;55.65;26.58;;;21.20;99.90;;;;;;4990654;28;20050;-89
2021/09/05 10:09:48;;;;;;;56.45;26.70;;;21.20;99.90;;;;;;5029208;28;20050;-88
2021/09/05 10:12:25;;;;;;;55.40;29.30;;;21.20;99.90;;;;;;5012153;28;20050;-88
2021/09/05 10:14:55;;;;;;;53.17;29.13;;;21.20;99.90;;;;;;5011828;28;20057;-89
2021/09/05 10:17:27;;;;;;;60.80;30.92;;;21.20;99.90;;;;;;4993830;28;20061;-88
2021/09/05 10:19:57;;;;;;;56.03;30.52;;;21.10;99.90;;;;;;5022544;28;20077;-88
2021/09/05 10:22:31;;;;;;;52.42;27.88;;;21.10;99.90;;;;;;5027116;28;20053;-89
2021/09/05 10:25:04;;;;;;;58.17;29.20;;;21.20;99.90;;;;;;4966561;28;20053;-88
2021/09/05 10:27:34;;;;;;;56.97;29.00;;;21.20;99.90;;;;;;5003636;28;20512;-89
2021/09/05 10:30:07;;;;;;;59.40;29.90;;;21.30;99.90;;;;;;5001429;28;20057;-91
2021/09/05 10:32:46;;;;;;;58.55;28.77;;;21.30;99.90;;;;;;4982898;28;20046;-90
2021/09/05 10:35:25;;;;;;;50.47;28.17;;;21.30;99.90;;;;;;5003068;28;20061;-90
2021/09/05 10:38:08;;;;;;;58.53;31.27;;;21.40;99.90;;;;;;5028172;28;20520;-89
2021/09/05 10:40:43;;;;;;;61.25;32.47;;;21.50;99.90;;;;;;5020075;28;20061;-90
2021/09/05 10:43:21;;;;;;;53.75;28.45;;;21.60;99.90;;;;;;5116460;23;20042;-81
2021/09/05 10:45:59;;;;;;;59.55;30.85;;;21.60;99.90;;;;;;5010423;28;20046;-81
2021/09/05 10:48:33;;;;;;;56.83;31.58;;;21.70;99.90;;;;;;5052613;28;20049;-80
2021/09/05 10:54:29;;;;;;;55.42;30.92;;;22.00;99.90;;;;;;4947083;24;20062;-88
2021/09/05 10:56:59;;;;;;;61.97;31.98;;;22.10;99.90;;;;;;4836646;29;20057;-88
2021/09/05 10:59:35;;;;;;;58.05;34.08;;;22.30;99.90;;;;;;4818762;29;20069;-87
2021/09/05 11:02:05;;;;;;;60.28;34.08;;;22.40;99.90;;;;;;4837411;29;20560;-89
2021/09/05 11:04:42;;;;;;;57.20;32.78;;;22.40;99.90;;;;;;4845385;29;20058;-88
2021/09/05 11:07:31;;;;;;;52.53;29.08;;;22.50;99.90;;;;;;4802414;29;20418;-89
2021/09/05 11:09:59;;;;;;;52.17;28.25;;;22.60;99.90;;;;;;4840491;29;20057;-91
2021/09/05 11:12:42;;;;;;;65.68;35.13;;;22.80;99.90;;;;;;4831812;29;20046;-88
2021/09/05 11:15:19;;;;;;;60.00;29.95;;;22.80;99.90;;;;;;4826237;29;20061;-89
2021/09/05 11:17:53;;;;;;;59.58;32.95;;;22.70;99.90;;;;;;4849373;29;20073;-88
2021/09/05 11:20:24;;;;;;;60.65;35.45;;;23.10;99.90;;;;;;4856220;29;20473;-89
2021/09/05 11:22:56;;;;;;;56.35;30.30;;;23.20;99.90;;;;;;4822638;29;20495;-89
2021/09/05 11:25:33;;;;;;;50.75;29.15;;;23.40;99.90;;;;;;4824988;29;20054;-88
2021/09/05 11:28:09;;;;;;;55.80;30.07;;;23.50;99.90;;;;;;4831328;29;20054;-89
2021/09/05 11:30:59;;;;;;;51.70;28.92;;;23.70;99.90;;;;;;4818548;29;20058;-88
2021/09/05 11:33:29;;;;;;;53.80;28.63;;;23.90;99.90;;;;;;4804311;29;20058;-88
2021/09/05 11:36:02;;;;;;;50.97;27.80;;;24.00;99.90;;;;;;4813529;29;20065;-88
2021/09/05 11:38:38;;;;;;;51.08;29.42;;;24.20;99.90;;;;;;4829318;29;20058;-88
2021/09/05 11:41:12;;;;;;;59.03;29.40;;;24.30;99.90;;;;;;4839956;29;20057;-89
2021/09/05 11:44:10;;;;;;;47.92;29.73;;;24.40;99.90;;;;;;4820492;29;20054;-88
2021/09/05 11:46:48;;;;;;;54.03;27.30;;;24.80;99.90;;;;;;4826883;29;20064;-89
2021/09/05 11:49:26;;;;;;;53.15;28.13;;;24.50;99.70;;;;;;4832255;29;20049;-89
2021/09/05 11:52:09;;;;;;;52.78;28.30;;;24.60;99.90;;;;;;4839183;29;20524;-88
2021/09/05 11:54:38;;;;;;;51.70;29.00;;;24.70;99.80;;;;;;4822624;29;20050;-89
2021/09/05 11:57:10;;;;;;;56.67;30.55;;;24.60;99.50;;;;;;4808826;29;20065;-87
2021/09/05 11:59:40;;;;;;;54.15;27.65;;;24.70;99.30;;;;;;4828767;29;20062;-90
2021/09/05 12:02:10;;;;;;;53.35;29.83;;;24.70;99.30;;;;;;4828688;29;20054;-90
2021/09/05 12:04:40;;;;;;;55.75;26.08;;;24.80;99.00;;;;;;4817162;29;20057;-89
2021/09/05 12:07:11;;;;;;;46.35;26.00;;;24.90;99.10;;;;;;4795737;29;20058;-89
2021/09/05 12:09:40;;;;;;;45.93;23.97;;;24.90;98.70;;;;;;4828994;29;20061;-89
2021/09/05 12:12:10;;;;;;;48.95;25.10;;;25.00;98.60;;;;;;4819679;29;20302;-90
2021/09/05 12:14:42;;;;;;;48.75;25.80;;;25.00;98.60;;;;;;4830233;29;20056;-90
2021/09/05 12:17:20;;;;;;;51.28;28.30;;;25.00;98.50;;;;;;4830483;29;20055;-91
2021/09/05 12:20:02;;;;;;;43.28;23.85;;;25.10;98.00;;;;;;4841490;29;20057;-91
2021/09/05 12:22:45;;;;;;;47.45;24.15;;;25.20;97.90;;;;;;4841730;29;20057;-90
2021/09/05 12:25:24;;;;;;;42.78;23.27;;;25.30;97.90;;;;;;4829405;29;20046;-90
2021/09/05 12:28:10;;;;;;;45.75;22.77;;;25.30;97.90;;;;;;4828635;29;20060;-88
2021/09/05 12:30:58;;;;;;;45.78;24.98;;;25.40;97.90;;;;;;4825569;29;20046;-89
2021/09/05 12:33:27;;;;;;;52.92;25.75;;;25.50;97.10;;;;;;4817192;29;20594;-91
2021/09/05 12:36:05;;;;;;;49.55;25.77;;;25.60;97.60;;;;;;4812054;29;20054;-89
2021/09/05 12:38:37;;;;;;;46.38;23.33;;;25.70;96.60;;;;;;4821615;29;20065;-91
2021/09/05 12:41:13;;;;;;;43.13;23.42;;;25.80;97.00;;;;;;4822912;29;20246;-89
2021/09/05 12:43:54;;;;;;;47.90;24.65;;;25.80;96.40;;;;;;4805235;29;20058;-91
2021/09/05 12:46:40;;;;;;;37.85;21.65;;;25.80;96.40;;;;;;4809018;29;20054;-87
2021/09/05 12:49:18;;;;;;;45.60;25.25;;;25.90;96.30;;;;;;4819088;29;20550;-90
2021/09/05 12:51:55;;;;;;;42.08;24.27;;;25.90;96.20;;;;;;4825587;29;20043;-88
2021/09/05 12:54:25;;;;;;;44.35;24.35;;;25.90;96.00;;;;;;4821417;29;20055;-89
2021/09/05 12:56:57;;;;;;;45.58;23.15;;;25.90;96.10;;;;;;4821058;29;20407;-92
2021/09/05 12:59:30;;;;;;;48.00;23.25;;;25.90;95.80;;;;;;4801962;29;20069;-90
2021/09/05 13:01:58;;;;;;;44.53;25.77;;;25.90;96.00;;;;;;4827670;29;20050;-87
2021/09/05 13:04:32;;;;;;;42.75;23.85;;;25.90;96.00;;;;;;4825493;29;20053;-90
2021/09/05 13:07:01;;;;;;;44.88;24.40;;;26.00;96.00;;;;;;4810861;29;20649;-90
2021/09/05 13:09:29;;;;;;;40.53;22.33;;;26.00;95.90;;;;;;4809201;29;20059;-91
2021/09/05 13:11:58;;;;;;;43.15;22.42;;;26.10;95.60;;;;;;4801369;29;20066;-90